Skip Navigation LinksHome page > Weather > Current weather Skip Navigation Links

Current Weather

Detroit City, Detroit

For information only: do not use for flight planning or navigation.
Latest weather
Observation time Monday, June 21, 2021 9:53 PM EDT
Local time Monday, June 21, 2021 10:29 PM EDT
Flight conditions Visual Meteorological Conditions
Winds
Wind direction North-Northwest (340°)
Wind speed 8 mph
Visibility 10 mi.
Sky condition
Ceiling unlimited
Sky clear
Temperature 65°F
Dewpoint 49°F
Altimeter 29.78 in.Hg
Derived measurements
Relative humidity 56%
Density altitude 1344 ft.
Sea-level pressure 29.77 in.Hg
Remarks
Automated weather observing station with precipitation discriminator.
METAR KDET 220153Z 34007KT 10SM CLR 18/09 A2978 RMK AO2 SLP081 T01830094

Settings

Location code

InnerDrive.Weather 4.0.6770.0 Release CLR 4.0.30319.42000
Copyright ©2018 Inner Drive Technology. All rights reserved. Portions Copyright ©1986-2018 David Braverman.

Find weather

Site navigation


Skip Navigation Links

Place info

Page info

PayPal - The safer, easier way to pay online!

Return home.

Copyright ©2021 Inner Drive Technology. Purveyors of fine, hand-crafted computer software. Page printed 2021-06-22T02:29:36 UTC.